Time;durP1;ratioP1;P1;durP2;ratioP2;P2;SDS_P1;SDS_P2;PMS_P1;PMS_P2;Temp;Humidity;BMP_temperature;BMP_pressure;BME280_temperature;BME280_humidity;BME280_pressure;Samples;Min_cycle;Max_cycle;Signal;HPM_P1;HPM_P2
2023/04/07 00:01:14;;;;;;;;;;;;;;;20.14;35.81;101492.63;5076605;28;19953;-72
2023/04/07 00:03:40;;;;;;;;;;;;;;;20.15;35.73;101490.81;5081524;28;19973;-71
2023/04/07 00:06:05;;;;;;;;;;;;;;;20.04;35.98;101486.69;5077739;28;19953;-72
2023/04/07 00:08:31;;;;;;;;;;;;;;;20.10;35.80;101485.19;5081613;28;19955;-72
2023/04/07 00:10:57;;;;;;;;;;;;;;;20.02;35.96;101486.00;5085591;28;19957;-71
2023/04/07 00:13:22;;;;;;;;;;;;;;;20.06;36.04;101482.03;5083446;28;19948;-72
2023/04/07 00:15:48;;;;;;;;;;;;;;;20.08;35.95;101480.06;5076387;28;20076;-72
2023/04/07 00:18:13;;;;;;;;;;;;;;;20.07;35.88;101486.34;5079149;28;19991;-70
2023/04/07 00:20:38;;;;;;;;;;;;;;;20.05;36.01;101482.22;5077368;28;19957;-72
2023/04/07 00:23:04;;;;;;;;;;;;;;;19.96;36.13;101488.50;5079488;28;19961;-72
2023/04/07 00:25:30;;;;;;;;;;;;;;;19.93;36.15;101489.66;5079552;28;19924;-72
2023/04/07 00:27:55;;;;;;;;;;;;;;;20.04;36.01;101486.69;5079002;28;19935;-72
2023/04/07 00:30:20;;;;;;;;;;;;;;;20.02;36.05;101485.19;5077836;28;19954;-72
2023/04/07 00:32:46;;;;;;;;;;;;;;;20.00;35.97;101482.72;5076776;28;19954;-72
2023/04/07 00:35:11;;;;;;;;;;;;;;;20.03;35.99;101482.38;5070455;28;20810;-71
2023/04/07 00:37:36;;;;;;;;;;;;;;;20.04;35.90;101477.91;5077407;28;19934;-71
2023/04/07 00:40:03;;;;;;;;;;;;;;;20.00;36.04;101479.25;5081233;28;19959;-72
2023/04/07 00:42:28;;;;;;;;;;;;;;;19.99;36.02;101480.25;5075962;28;19937;-71
2023/04/07 00:44:53;;;;;;;;;;;;;;;19.97;36.05;101482.22;5078210;28;20144;-72
2023/04/07 00:47:19;;;;;;;;;;;;;;;19.98;35.97;101484.69;5076357;28;19932;-72
2023/04/07 00:49:44;;;;;;;;;;;;;;;19.94;36.02;101488.66;5093805;28;20391;-72
2023/04/07 00:52:10;;;;;;;;;;;;;;;19.91;36.12;101479.22;5074677;28;20045;-72
2023/04/07 00:54:37;;;;;;;;;;;;;;;19.98;36.08;101482.06;5074020;28;19960;-71
2023/04/07 00:57:02;;;;;;;;;;;;;;;19.84;36.23;101483.53;5076197;28;20329;-72
2023/04/07 00:59:30;;;;;;;;;;;;;;;19.92;36.16;101477.41;5090151;28;19941;-71
2023/04/07 01:02:09;;;;;;;;;;;;;;;19.86;35.98;101462.22;5078727;28;19976;-71
2023/04/07 01:04:41;;;;;;;;;;;;;;;19.96;36.10;101477.94;5078900;28;19954;-71
2023/04/07 01:07:14;;;;;;;;;;;;;;;19.82;36.30;101479.41;5074705;28;19941;-72
2023/04/07 01:09:51;;;;;;;;;;;;;;;19.85;36.20;101474.59;5081036;28;19948;-71
2023/04/07 01:12:16;;;;;;;;;;;;;;;19.83;36.18;101479.22;5078559;28;20687;-71
2023/04/07 01:14:45;;;;;;;;;;;;;;;19.82;36.17;101477.59;5080658;28;19981;-71
2023/04/07 01:17:34;;;;;;;;;;;;;;;19.79;36.39;101471.81;5083200;28;19933;-71
2023/04/07 01:20:02;;;;;;;;;;;;;;;19.85;36.25;101473.78;5078676;28;19946;-71
2023/04/07 01:22:33;;;;;;;;;;;;;;;19.85;36.21;101476.44;5071302;28;20048;-72
2023/04/07 01:24:58;;;;;;;;;;;;;;;19.73;36.36;101470.63;5080676;28;19953;-71
2023/04/07 01:27:26;;;;;;;;;;;;;;;19.76;36.41;101477.41;5077444;28;20451;-71
2023/04/07 01:29:52;;;;;;;;;;;;;;;19.81;36.38;101477.75;5076584;28;19944;-72
2023/04/07 01:32:19;;;;;;;;;;;;;;;19.79;36.39;101477.09;5112154;27;19964;-73
2023/04/07 01:34:47;;;;;;;;;;;;;;;19.80;36.37;101476.09;5077581;28;19976;-71
2023/04/07 01:37:13;;;;;;;;;;;;;;;19.73;36.49;101480.38;5081463;28;19942;-72
2023/04/07 01:39:39;;;;;;;;;;;;;;;19.73;36.45;101473.25;5076990;28;19932;-72
2023/04/07 01:42:06;;;;;;;;;;;;;;;19.75;36.29;101481.03;5078860;28;20552;-72
2023/04/07 01:44:31;;;;;;;;;;;;;;;19.66;36.63;101482.84;5081184;28;19964;-71
2023/04/07 01:46:58;;;;;;;;;;;;;;;19.75;36.46;101479.25;5078655;28;19934;-71
2023/04/07 01:49:25;;;;;;;;;;;;;;;19.72;36.50;101479.53;5074451;28;20609;-72
2023/04/07 01:51:50;;;;;;;;;;;;;;;19.74;36.50;101480.19;5074692;28;19944;-72
2023/04/07 01:54:16;;;;;;;;;;;;;;;19.67;36.58;101479.22;5080831;28;19936;-71
2023/04/07 01:56:43;;;;;;;;;;;;;;;19.67;36.65;101483.66;5077368;28;19941;-71
2023/04/07 01:59:08;;;;;;;;;;;;;;;19.67;36.55;101481.84;5097888;28;20033;-71
2023/04/07 02:01:34;;;;;;;;;;;;;;;19.67;36.55;101484.50;5076199;28;19971;-71
2023/04/07 02:04:06;;;;;;;;;;;;;;;19.71;36.47;101480.53;5066449;28;19975;-72
2023/04/07 02:06:34;;;;;;;;;;;;;;;19.69;36.49;101489.63;5077965;28;20029;-71
2023/04/07 02:09:03;;;;;;;;;;;;;;;19.60;36.68;101480.84;5072400;28;20637;-71
2023/04/07 02:11:31;;;;;;;;;;;;;;;19.61;36.64;101488.63;5078040;28;19945;-72
2023/04/07 02:14:01;;;;;;;;;;;;;;;19.59;36.75;101487.13;5080762;28;19940;-72
2023/04/07 02:16:31;;;;;;;;;;;;;;;19.64;36.64;101491.91;5074737;28;20667;-72
2023/04/07 02:18:57;;;;;;;;;;;;;;;19.64;36.58;101490.09;5104829;27;20183;-72
2023/04/07 02:21:24;;;;;;;;;;;;;;;19.59;36.76;101487.13;5075755;28;19941;-72
2023/04/07 02:23:50;;;;;;;;;;;;;;;19.56;36.77;101485.63;5082147;28;20242;-72
2023/04/07 02:26:15;;;;;;;;;;;;;;;19.54;36.85;101490.25;5077283;28;19935;-72
2023/04/07 02:28:40;;;;;;;;;;;;;;;19.63;36.70;101496.38;5080314;28;19943;-72
2023/04/07 02:31:06;;;;;;;;;;;;;;;19.57;36.77;101483.84;5071520;28;19934;-72
2023/04/07 02:33:31;;;;;;;;;;;;;;;19.58;36.83;101488.13;5080330;28;19935;-71
2023/04/07 02:35:56;;;;;;;;;;;;;;;19.56;36.75;101488.25;5075015;28;19940;-72
2023/04/07 02:38:22;;;;;;;;;;;;;;;19.54;36.80;101487.59;5075722;28;19944;-71
2023/04/07 02:40:47;;;;;;;;;;;;;;;19.50;36.78;101488.88;5081925;28;20027;-71
2023/04/07 02:43:13;;;;;;;;;;;;;;;19.57;36.74;101491.75;5078877;28;19981;-72
2023/04/07 02:45:38;;;;;;;;;;;;;;;19.53;36.88;101493.00;5081474;28;20418;-72
2023/04/07 02:48:04;;;;;;;;;;;;;;;19.49;37.16;101491.69;5079175;28;19935;-72
2023/04/07 02:50:29;;;;;;;;;;;;;;;19.47;36.97;101497.13;5084534;28;19945;-72
2023/04/07 02:52:54;;;;;;;;;;;;;;;19.53;36.77;101498.28;5080203;28;19952;-72
2023/04/07 02:55:20;;;;;;;;;;;;;;;19.54;36.86;101494.69;5090974;28;19945;-72
2023/04/07 02:57:45;;;;;;;;;;;;;;;19.54;36.80;101495.53;5075947;28;19944;-72
2023/04/07 03:00:21;;;;;;;;;;;;;;;19.49;36.87;101496.97;5075078;28;19941;-71
2023/04/07 03:03:07;;;;;;;;;;;;;;;19.53;36.74;101495.66;5084542;28;19969;-72
2023/04/07 03:05:36;;;;;;;;;;;;;;;19.47;36.96;101494.50;5079787;28;20069;-72
2023/04/07 03:08:02;;;;;;;;;;;;;;;19.46;36.96;101495.47;5077215;28;19946;-71
2023/04/07 03:10:28;;;;;;;;;;;;;;;19.47;36.94;101498.94;5097200;28;19941;-71
2023/04/07 03:12:54;;;;;;;;;;;;;;;19.52;36.86;101505.41;5076833;28;19934;-72
2023/04/07 03:15:20;;;;;;;;;;;;;;;19.45;36.87;101501.75;5081252;28;19943;-72
2023/04/07 03:17:47;;;;;;;;;;;;;;;19.47;37.01;101498.94;5079539;28;19954;-71
2023/04/07 03:20:16;;;;;;;;;;;;;;;19.41;37.16;101512.81;5077093;28;19935;-71
2023/04/07 03:22:41;;;;;;;;;;;;;;;19.42;37.03;101507.38;5080847;28;20057;-71
2023/04/07 03:25:13;;;;;;;;;;;;;;;19.41;37.10;101504.88;5084521;28;19961;-72
2023/04/07 03:27:39;;;;;;;;;;;;;;;19.47;36.91;101502.41;5092870;28;19940;-71
2023/04/07 03:30:08;;;;;;;;;;;;;;;19.47;36.95;101502.41;5084769;28;19943;-72
2023/04/07 03:32:34;;;;;;;;;;;;;;;19.46;36.94;101508.69;5066177;28;19938;-71
2023/04/07 03:34:59;;;;;;;;;;;;;;;19.47;36.99;101507.69;5083997;28;20387;-72
2023/04/07 03:37:25;;;;;;;;;;;;;;;19.42;37.13;101504.72;5087543;28;19938;-72
2023/04/07 03:39:51;;;;;;;;;;;;;;;19.32;37.28;101509.31;5106162;27;19943;-71
2023/04/07 03:42:25;;;;;;;;;;;;;;;19.31;37.23;101507.66;5079949;28;20302;-71
2023/04/07 03:44:56;;;;;;;;;;;;;;;19.42;37.04;101504.72;5081004;28;20024;-71
2023/04/07 03:47:22;;;;;;;;;;;;;;;19.41;36.97;101513.63;5082107;28;19937;-72
2023/04/07 03:49:54;;;;;;;;;;;;;;;19.41;37.06;101511.00;5082180;28;19996;-72
2023/04/07 03:52:20;;;;;;;;;;;;;;;19.45;37.00;101514.13;5083587;28;19978;-72
2023/04/07 03:54:49;;;;;;;;;;;;;;;19.39;37.16;101517.41;5084216;28;19937;-72
2023/04/07 03:57:15;;;;;;;;;;;;;;;19.39;37.02;101517.41;5080270;28;19995;-71
2023/04/07 03:59:46;;;;;;;;;;;;;;;19.35;37.09;101519.53;5081098;28;19987;-70
2023/04/07 04:02:12;;;;;;;;;;;;;;;19.37;37.17;101524.66;5075596;28;19937;-71
2023/04/07 04:04:38;;;;;;;;;;;;;;;19.36;37.01;101521.19;5074455;28;19970;-70
2023/04/07 04:07:04;;;;;;;;;;;;;;;19.33;37.19;101524.97;5077599;28;19971;-71
2023/04/07 04:09:51;;;;;;;;;;;;;;;19.39;36.93;101530.59;5074726;28;19948;-71
2023/04/07 04:12:17;;;;;;;;;;;;;;;19.34;37.16;101533.72;5084593;28;19976;-71
2023/04/07 04:15:03;;;;;;;;;;;;;;;19.35;37.22;101534.56;5078565;28;19946;-71
2023/04/07 04:17:29;;;;;;;;;;;;;;;19.35;37.11;101535.38;5078629;28;19947;-71
2023/04/07 04:19:55;;;;;;;;;;;;;;;19.31;37.22;101532.25;5077566;28;19944;-71
2023/04/07 04:22:34;;;;;;;;;;;;;;;19.31;37.23;101529.59;5098567;27;19960;-71
2023/04/07 04:25:00;;;;;;;;;;;;;;;19.33;37.14;101532.06;5082086;28;20338;-71
2023/04/07 04:27:27;;;;;;;;;;;;;;;19.29;37.29;101533.38;5080341;28;20033;-70
2023/04/07 04:30:01;;;;;;;;;;;;;;;19.32;37.21;101533.88;5073871;28;19977;-71
2023/04/07 04:32:37;;;;;;;;;;;;;;;19.26;37.33;101539.81;5080976;28;19981;-71
2023/04/07 04:35:04;;;;;;;;;;;;;;;19.23;37.41;101540.13;5075861;28;20354;-71
2023/04/07 04:37:33;;;;;;;;;;;;;;;19.20;37.35;101543.06;5077475;28;19940;-72
2023/04/07 04:40:00;;;;;;;;;;;;;;;19.30;37.14;101540.31;5074334;28;20453;-71
2023/04/07 04:42:27;;;;;;;;;;;;;;;19.23;37.22;101531.38;5083327;28;19939;-71
2023/04/07 04:44:55;;;;;;;;;;;;;;;19.26;37.24;101544.28;5107853;27;20427;-71
2023/04/07 04:47:20;;;;;;;;;;;;;;;19.28;37.23;101548.41;5088919;28;19940;-70
2023/04/07 04:49:46;;;;;;;;;;;;;;;19.26;37.29;101553.03;5078120;28;19947;-71
2023/04/07 04:52:12;;;;;;;;;;;;;;;19.24;37.31;101560.28;5084093;28;19971;-71
2023/04/07 04:54:42;;;;;;;;;;;;;;;19.25;37.26;101561.94;5074284;28;19949;-72
2023/04/07 04:57:09;;;;;;;;;;;;;;;19.22;37.32;101553.50;5080924;28;19940;-71
2023/04/07 04:59:36;;;;;;;;;;;;;;;19.21;37.32;101557.09;5091802;28;20375;-71
2023/04/07 05:02:03;;;;;;;;;;;;;;;19.19;37.45;101565.19;5079534;28;19935;-71
2023/04/07 05:04:28;;;;;;;;;;;;;;;19.35;37.11;101556.50;5074787;28;19964;-71
2023/04/07 05:07:01;;;;;;;;;;;;;;;19.42;36.99;101557.53;5080907;28;19952;-71
2023/04/07 05:09:29;;;;;;;;;;;;;;;19.47;36.81;101559.69;5083802;28;19936;-71
2023/04/07 05:11:56;;;;;;;;;;;;;;;19.47;36.78;101557.88;5083071;28;19935;-71
2023/04/07 05:14:23;;;;;;;;;;;;;;;19.46;36.97;101561.53;5076636;28;20480;-71
2023/04/07 05:16:54;;;;;;;;;;;;;;;19.47;36.91;101564.97;5080242;28;19942;-71
2023/04/07 05:19:23;;;;;;;;;;;;;;;19.46;36.84;101572.09;5082252;28;19932;-71
2023/04/07 05:21:52;;;;;;;;;;;;;;;19.51;36.87;101576.88;5074748;28;19940;-71
2023/04/07 05:24:21;;;;;;;;;;;;;;;19.45;37.00;101581.00;5074745;28;19963;-71
2023/04/07 05:26:51;;;;;;;;;;;;;;;19.44;37.01;101579.34;5076188;28;19937;-71
2023/04/07 05:29:16;;;;;;;;;;;;;;;19.46;36.94;101580.00;5080920;28;20003;-70
2023/04/07 05:31:42;;;;;;;;;;;;;;;19.47;36.92;101583.47;5076178;28;19939;-71
2023/04/07 05:34:11;;;;;;;;;;;;;;;19.46;36.96;101580.00;5073175;28;19995;-70
2023/04/07 05:36:43;;;;;;;;;;;;;;;19.47;36.94;101584.31;5090067;28;19937;-72
2023/04/07 05:39:08;;;;;;;;;;;;;;;19.47;36.94;101589.59;5084915;28;20016;-70
2023/04/07 05:41:33;;;;;;;;;;;;;;;19.47;36.89;101600.16;5108932;27;19939;-71
2023/04/07 05:44:00;;;;;;;;;;;;;;;19.47;36.91;101597.50;5075665;28;19937;-71
2023/04/07 05:46:28;;;;;;;;;;;;;;;19.52;36.85;101595.22;5081911;28;19943;-71
2023/04/07 05:48:56;;;;;;;;;;;;;;;19.45;36.85;101602.13;5110020;27;19944;-70
2023/04/07 05:51:23;;;;;;;;;;;;;;;19.38;36.96;101602.91;5081258;28;20390;-71
2023/04/07 05:53:50;;;;;;;;;;;;;;;19.36;37.08;101600.41;5076706;28;19943;-71
2023/04/07 05:56:16;;;;;;;;;;;;;;;19.40;36.87;101603.59;5089247;28;19940;-71
2023/04/07 05:58:45;;;;;;;;;;;;;;;19.40;37.13;101614.16;5068452;28;19940;-71
2023/04/07 06:01:11;;;;;;;;;;;;;;;19.34;37.13;101610.31;5105045;27;19940;-71
2023/04/07 06:03:37;;;;;;;;;;;;;;;19.33;37.13;101609.50;5073605;28;19967;-71
2023/04/07 06:06:28;;;;;;;;;;;;;;;19.42;37.01;101612.19;5072909;28;20023;-71
2023/04/07 06:08:54;;;;;;;;;;;;;;;19.32;37.09;101623.69;5075372;28;19987;-71
2023/04/07 06:11:22;;;;;;;;;;;;;;;19.33;37.10;101621.88;5077081;28;19939;-71
2023/04/07 06:13:47;;;;;;;;;;;;;;;19.42;37.04;101630.69;5096706;28;20505;-71
2023/04/07 06:16:12;;;;;;;;;;;;;;;19.51;36.81;101627.06;5083428;28;21479;-71
2023/04/07 06:18:38;;;;;;;;;;;;;;;19.47;37.21;101628.38;5078772;28;19973;-70
2023/04/07 06:21:05;;;;;;;;;;;;;;;19.77;36.58;101627.06;5082206;28;20020;-69
2023/04/07 06:23:30;;;;;;;;;;;;;;;20.44;35.18;101633.16;5077894;28;20050;-70
2023/04/07 06:25:56;;;;;;;;;;;;;;;20.80;35.02;101634.50;5078653;28;20007;-67
2023/04/07 06:28:21;;;;;;;;;;;;;;;21.30;34.16;101633.44;5077292;28;19988;-67
2023/04/07 06:30:47;;;;;;;;;;;;;;;21.21;33.95;101630.97;5069482;28;19941;-67
2023/04/07 06:33:14;;;;;;;;;;;;;;;21.43;33.59;101635.56;5074111;28;19935;-67
2023/04/07 06:35:40;;;;;;;;;;;;;;;21.32;34.20;101643.88;5076124;28;20259;-67
2023/04/07 06:38:06;;;;;;;;;;;;;;;21.35;34.18;101640.88;5075687;28;19942;-68
2023/04/07 06:40:31;;;;;;;;;;;;;;;21.37;34.23;101636.28;5075890;28;20198;-68
2023/04/07 06:42:57;;;;;;;;;;;;;;;21.33;34.15;101641.06;5075802;28;20369;-67
2023/04/07 06:45:29;;;;;;;;;;;;;;;21.32;34.29;101641.22;5080542;28;19976;-67
2023/04/07 06:47:54;;;;;;;;;;;;;;;21.28;34.43;101642.56;5081856;28;19937;-67
2023/04/07 06:50:21;;;;;;;;;;;;;;;21.10;34.38;101637.44;5082207;28;19978;-68
2023/04/07 06:52:46;;;;;;;;;;;;;;;21.20;34.48;101656.63;5077651;28;20284;-67
2023/04/07 06:55:11;;;;;;;;;;;;;;;21.17;34.41;101653.47;5079578;28;19966;-67
2023/04/07 06:57:37;;;;;;;;;;;;;;;21.14;34.64;101654.66;5083028;28;20374;-67
2023/04/07 07:00:02;;;;;;;;;;;;;;;21.12;34.60;101660.13;5082389;28;19948;-68
2023/04/07 07:02:28;;;;;;;;;;;;;;;21.13;34.50;101658.28;5078729;28;19955;-69
2023/04/07 07:04:53;;;;;;;;;;;;;;;21.07;34.45;101658.97;5073106;28;19997;-69
2023/04/07 07:07:18;;;;;;;;;;;;;;;21.07;34.55;101657.16;5078197;28;19945;-68
2023/04/07 07:09:44;;;;;;;;;;;;;;;21.04;34.83;101660.13;5074352;28;19943;-68
2023/04/07 07:12:09;;;;;;;;;;;;;;;21.01;34.80;101660.47;5072819;28;21462;-69
2023/04/07 07:14:34;;;;;;;;;;;;;;;20.98;34.92;101665.25;5072650;28;19945;-68
2023/04/07 07:17:00;;;;;;;;;;;;;;;20.90;34.84;101675.88;5074981;28;19947;-68
2023/04/07 07:19:25;;;;;;;;;;;;;;;20.97;34.59;101677.66;5076735;28;20039;-68
2023/04/07 07:21:50;;;;;;;;;;;;;;;20.90;34.88;101675.88;5075980;28;21207;-68
2023/04/07 07:24:16;;;;;;;;;;;;;;;20.91;34.97;101674.88;5080834;28;20330;-68
2023/04/07 07:26:41;;;;;;;;;;;;;;;20.81;34.98;101683.78;5081016;28;19939;-68
2023/04/07 07:29:06;;;;;;;;;;;;;;;20.78;34.90;101686.78;5077314;28;20058;-68
2023/04/07 07:31:32;;;;;;;;;;;;;;;20.66;35.46;101679.34;5072896;28;19935;-68
2023/04/07 07:33:57;;;;;;;;;;;;;;;20.48;35.60;101685.63;5076234;28;19935;-68
2023/04/07 07:36:22;;;;;;;;;;;;;;;20.54;35.63;101694.72;5071924;28;20039;-69
2023/04/07 07:38:49;;;;;;;;;;;;;;;20.49;35.60;101695.22;5073326;28;19941;-68
2023/04/07 07:41:15;;;;;;;;;;;;;;;20.45;35.54;101703.59;5074424;28;19930;-67
2023/04/07 07:43:41;;;;;;;;;;;;;;;20.51;35.61;101703.81;5075072;28;19939;-69
2023/04/07 07:46:06;;;;;;;;;;;;;;;20.46;35.65;101705.25;5079945;28;19966;-68
2023/04/07 07:48:31;;;;;;;;;;;;;;;20.31;35.94;101705.06;5073747;28;20433;-68
2023/04/07 07:50:57;;;;;;;;;;;;;;;20.45;35.59;101708.91;5078160;28;20693;-68
2023/04/07 07:53:22;;;;;;;;;;;;;;;20.32;35.87;101717.28;5080235;28;19982;-68
2023/04/07 07:55:48;;;;;;;;;;;;;;;20.35;35.92;101716.97;5072975;28;21299;-68
2023/04/07 07:58:13;;;;;;;;;;;;;;;20.22;36.09;101720.06;5075872;28;20028;-68
2023/04/07 08:00:39;;;;;;;;;;;;;;;20.24;36.06;101722.53;5075398;28;19941;-68
2023/04/07 08:03:04;;;;;;;;;;;;;;;20.35;35.90;101724.91;5078047;28;20357;-69
2023/04/07 08:05:30;;;;;;;;;;;;;;;20.29;35.94;101724.69;5084434;28;20459;-68
2023/04/07 08:07:56;;;;;;;;;;;;;;;20.28;36.06;101728.34;5080507;28;20399;-68
2023/04/07 08:10:23;;;;;;;;;;;;;;;20.31;36.03;101725.38;5078656;28;20752;-68
2023/04/07 08:12:49;;;;;;;;;;;;;;;20.28;36.00;101734.44;5076994;28;19947;-68
2023/04/07 08:15:15;;;;;;;;;;;;;;;20.09;36.27;101737.34;5077350;28;19941;-68
2023/04/07 08:17:41;;;;;;;;;;;;;;;20.10;36.30;101741.66;5065807;28;19931;-68
2023/04/07 08:20:06;;;;;;;;;;;;;;;20.05;36.43;101739.50;5071360;28;20127;-68
2023/04/07 08:22:32;;;;;;;;;;;;;;;20.04;36.50;101742.31;5082255;28;20051;-69
2023/04/07 08:24:57;;;;;;;;;;;;;;;20.12;36.29;101748.47;5076683;28;19957;-68
2023/04/07 08:27:22;;;;;;;;;;;;;;;20.13;36.21;101752.78;5080624;28;19940;-68
2023/04/07 08:30:01;;;;;;;;;;;;;;;20.00;36.39;101755.03;5076655;28;19951;-68
2023/04/07 08:32:40;;;;;;;;;;;;;;;20.02;36.50;101758.31;5075214;28;19931;-68
2023/04/07 08:35:05;;;;;;;;;;;;;;;20.25;36.21;101763.88;5081794;28;20307;-68
2023/04/07 08:37:31;;;;;;;;;;;;;;;20.80;34.98;101761.56;5075816;28;19944;-68
2023/04/07 08:39:57;;;;;;;;;;;;;;;21.09;34.42;101753.16;5073426;28;20379;-68
2023/04/07 08:42:26;;;;;;;;;;;;;;;21.31;34.13;101758.78;5072725;28;19941;-68
2023/04/07 08:44:52;;;;;;;;;;;;;;;21.39;34.24;101751.69;5068921;28;19958;-68
2023/04/07 08:47:19;;;;;;;;;;;;;;;21.40;33.97;101766.59;5073059;28;19934;-67
2023/04/07 08:49:48;;;;;;;;;;;;;;;21.37;34.31;101766.09;5072413;28;19944;-68
2023/04/07 08:52:14;;;;;;;;;;;;;;;21.38;34.39;101767.75;5075876;28;19948;-68
2023/04/07 08:54:40;;;;;;;;;;;;;;;21.33;34.39;101772.69;5072239;28;19952;-68
2023/04/07 08:57:06;;;;;;;;;;;;;;;21.32;34.40;101769.22;5075634;28;19932;-68
2023/04/07 08:59:32;;;;;;;;;;;;;;;21.26;34.61;101775.19;5073605;28;20375;-68
2023/04/07 09:01:58;;;;;;;;;;;;;;;21.28;34.73;101775.03;5071096;28;19951;-68
2023/04/07 09:04:26;;;;;;;;;;;;;;;21.28;34.40;101775.03;5076849;28;19984;-68
2023/04/07 09:06:51;;;;;;;;;;;;;;;21.28;34.51;101781.16;5072379;28;20479;-68
2023/04/07 09:09:17;;;;;;;;;;;;;;;21.25;34.53;101780.66;5070030;28;19944;-68
2023/04/07 09:11:42;;;;;;;;;;;;;;;21.20;34.84;101781.13;5068962;28;19941;-71
2023/04/07 09:14:07;;;;;;;;;;;;;;;21.14;34.77;101787.06;5071241;28;19946;-68
2023/04/07 09:16:34;;;;;;;;;;;;;;;21.18;34.71;101782.28;5071603;28;19944;-68
2023/04/07 09:18:59;;;;;;;;;;;;;;;21.12;34.73;101781.94;5070136;28;19939;-68
2023/04/07 09:21:26;;;;;;;;;;;;;;;21.13;34.82;101783.59;5072930;28;19940;-68
2023/04/07 09:23:51;;;;;;;;;;;;;;;21.06;34.96;101787.09;5071616;28;20003;-68
2023/04/07 09:26:21;;;;;;;;;;;;;;;21.02;35.15;101791.88;5071575;28;20040;-69
2023/04/07 09:28:49;;;;;;;;;;;;;;;20.74;35.38;101780.75;5070849;28;19976;-68
2023/04/07 09:31:14;;;;;;;;;;;;;;;20.79;35.34;101788.19;5071599;28;19932;-68
2023/04/07 09:33:40;;;;;;;;;;;;;;;20.74;35.40;101795.81;5072166;28;20606;-68
2023/04/07 09:36:06;;;;;;;;;;;;;;;20.64;35.78;101795.09;5073495;28;19937;-68
2023/04/07 09:38:35;;;;;;;;;;;;;;;20.66;35.66;101795.78;5073822;28;19946;-68
2023/04/07 09:41:04;;;;;;;;;;;;;;;20.56;35.67;101789.81;5073068;28;19942;-69
2023/04/07 09:43:30;;;;;;;;;;;;;;;20.63;35.85;101802.22;5070585;28;20587;-69
2023/04/07 09:46:05;;;;;;;;;;;;;;;20.54;36.03;101799.72;5068506;28;20050;-68
2023/04/07 09:48:31;;;;;;;;;;;;;;;20.49;35.92;101800.22;5072087;28;20408;-68
2023/04/07 09:51:04;;;;;;;;;;;;;;;20.36;36.30;101799.78;5074176;28;19946;-68
2023/04/07 09:53:40;;;;;;;;;;;;;;;20.38;36.19;101811.03;5073134;28;19947;-69
2023/04/07 09:56:06;;;;;;;;;;;;;;;20.27;36.54;101809.50;5077354;28;19951;-69
2023/04/07 09:58:31;;;;;;;;;;;;;;;20.48;36.05;101806.50;5075053;28;20204;-68
2023/04/07 10:00:57;;;;;;;;;;;;;;;20.57;35.76;101808.16;5080065;28;20003;-68
2023/04/07 10:03:22;;;;;;;;;;;;;;;20.50;35.75;101808.00;5078576;28;20132;-68
2023/04/07 10:05:48;;;;;;;;;;;;;;;20.44;36.18;101807.78;5080311;28;19958;-69
2023/04/07 10:08:14;;;;;;;;;;;;;;;20.51;35.93;101804.34;5079458;28;20115;-69
2023/04/07 10:10:40;;;;;;;;;;;;;;;20.44;36.03;101803.31;5075029;28;19950;-69
2023/04/07 10:13:06;;;;;;;;;;;;;;;20.43;36.13;101806.13;5073356;28;19940;-69
2023/04/07 10:15:31;;;;;;;;;;;;;;;20.38;36.18;101803.94;5073433;28;19960;-68
2023/04/07 10:17:57;;;;;;;;;;;;;;;20.34;36.33;101804.41;5077620;28;20025;-68
2023/04/07 10:20:23;;;;;;;;;;;;;;;20.38;36.23;101813.69;5079012;28;19968;-69
2023/04/07 10:22:50;;;;;;;;;;;;;;;20.41;36.20;101811.56;5077532;28;19946;-69
2023/04/07 10:25:17;;;;;;;;;;;;;;;20.40;36.22;101817.81;5077781;28;19963;-69
2023/04/07 10:27:50;;;;;;;;;;;;;;;20.37;36.36;101819.97;5076778;28;19934;-69
2023/04/07 10:30:26;;;;;;;;;;;;;;;20.33;36.47;101819.47;5079723;28;20293;-68
2023/04/07 10:32:52;;;;;;;;;;;;;;;20.27;36.42;101832.47;5074467;28;20036;-68
2023/04/07 10:35:18;;;;;;;;;;;;;;;20.32;36.26;101825.75;5078559;28;19949;-68
2023/04/07 10:38:02;;;;;;;;;;;;;;;20.86;35.48;101831.56;5080129;28;19954;-69
2023/04/07 10:40:28;;;;;;;;;;;;;;;21.23;34.74;101832.94;5080813;28;19943;-70
2023/04/07 10:42:53;;;;;;;;;;;;;;;21.34;34.37;101830.81;5081010;28;20308;-69
2023/04/07 10:45:39;;;;;;;;;;;;;;;21.35;34.56;101831.63;5076077;28;19974;-68
2023/04/07 10:48:04;;;;;;;;;;;;;;;21.33;34.40;101830.97;5081918;28;19951;-68
2023/04/07 10:50:29;;;;;;;;;;;;;;;21.29;34.70;101835.78;5077785;28;19941;-69
2023/04/07 10:53:07;;;;;;;;;;;;;;;21.22;34.65;101828.66;5076565;28;19937;-69
2023/04/07 10:55:36;;;;;;;;;;;;;;;21.20;34.61;101836.75;5076783;28;19963;-70
2023/04/07 10:58:20;;;;;;;;;;;;;;;21.21;34.85;101840.25;5075262;28;19983;-70
2023/04/07 11:01:04;;;;;;;;;;;;;;;21.17;34.90;101838.88;5077223;28;20318;-69
2023/04/07 11:03:31;;;;;;;;;;;;;;;21.11;34.95;101837.72;5076629;28;19979;-68
2023/04/07 11:06:03;;;;;;;;;;;;;;;20.97;35.21;101839.19;5080530;28;19952;-69
2023/04/07 11:08:35;;;;;;;;;;;;;;;20.85;35.36;101847.63;5076727;28;19936;-68
2023/04/07 11:11:01;;;;;;;;;;;;;;;20.82;35.50;101846.09;5083395;28;21834;-70
2023/04/07 11:13:26;;;;;;;;;;;;;;;20.81;35.65;101849.75;5084519;28;19937;-69
2023/04/07 11:15:52;;;;;;;;;;;;;;;20.76;35.73;101850.22;5079612;28;19990;-68
2023/04/07 11:18:18;;;;;;;;;;;;;;;21.12;35.12;101847.34;5032427;28;19957;-67
2023/04/07 11:20:45;;;;;;;;;;;;;;;21.24;34.98;101851.34;5079857;28;20374;-68
2023/04/07 11:23:11;;;;;;;;;;;;;;;21.49;34.55;101854.84;5083179;28;20023;-68
2023/04/07 11:25:37;;;;;;;;;;;;;;;21.76;33.84;101856.31;5078864;28;20015;-68
2023/04/07 11:28:03;;;;;;;;;;;;;;;22.28;33.15;101863.88;5074972;28;19987;-67
2023/04/07 11:30:28;;;;;;;;;;;;;;;22.67;32.38;101855.91;5078340;28;19938;-68
2023/04/07 11:32:55;;;;;;;;;;;;;;;22.99;31.89;101851.44;5037237;28;19948;-68
2023/04/07 11:35:21;;;;;;;;;;;;;;;23.16;31.81;101861.78;5065492;28;20054;-68
2023/04/07 11:37:46;;;;;;;;;;;;;;;23.16;31.87;101855.63;5074674;28;20493;-68
2023/04/07 11:40:15;;;;;;;;;;;;;;;23.15;31.71;101861.94;5036401;28;20030;-68
2023/04/07 11:42:41;;;;;;;;;;;;;;;23.06;31.91;101858.53;5075270;28;19933;-67
2023/04/07 11:45:17;;;;;;;;;;;;;;;23.02;32.26;101867.84;5041817;28;19967;-67
2023/04/07 11:47:42;;;;;;;;;;;;;;;22.96;32.10;101865.88;5078283;28;19975;-67
2023/04/07 11:50:08;;;;;;;;;;;;;;;22.89;32.32;101871.06;5022875;28;20135;-68
2023/04/07 11:52:40;;;;;;;;;;;;;;;22.83;32.57;101869.13;5074918;28;20042;-67
2023/04/07 11:55:05;;;;;;;;;;;;;;;22.80;32.57;101863.28;5034233;28;20538;-67
2023/04/07 11:57:31;;;;;;;;;;;;;;;22.75;32.46;101865.66;5073960;28;19934;-67
2023/04/07 12:00:06;;;;;;;;;;;;;;;22.71;32.66;101867.81;5041117;28;19952;-68
2023/04/07 12:02:34;;;;;;;;;;;;;;;22.63;32.81;101869.72;5075430;28;19942;-68
2023/04/07 12:05:00;;;;;;;;;;;;;;;22.60;32.78;101879.66;5037301;28;19962;-69
2023/04/07 12:07:25;;;;;;;;;;;;;;;22.55;32.93;101882.00;5064221;28;19990;-71
2023/04/07 12:09:52;;;;;;;;;;;;;;;22.52;33.16;101884.19;5074307;28;20348;-70
2023/04/07 12:12:24;;;;;;;;;;;;;;;22.50;33.05;101894.13;5037451;28;19942;-70
2023/04/07 12:14:50;;;;;;;;;;;;;;;22.44;33.41;101892.16;5074025;28;19936;-70
2023/04/07 12:17:22;;;;;;;;;;;;;;;22.27;33.28;101873.66;5039285;28;19990;-69
2023/04/07 12:19:47;;;;;;;;;;;;;;;22.35;33.42;101885.22;5075508;28;19942;-69
2023/04/07 12:22:13;;;;;;;;;;;;;;;22.38;33.60;101890.19;5024582;28;19948;-69
2023/04/07 12:24:38;;;;;;;;;;;;;;;22.33;33.33;101888.06;5073924;28;19952;-69
2023/04/07 12:27:04;;;;;;;;;;;;;;;22.31;33.60;101895.38;5072649;28;20310;-68
2023/04/07 12:29:29;;;;;;;;;;;;;;;22.29;33.33;101892.88;5036317;28;19951;-69
2023/04/07 12:31:55;;;;;;;;;;;;;;;22.29;33.65;101898.19;5074583;28;20042;-68
2023/04/07 12:34:20;;;;;;;;;;;;;;;22.26;33.53;101908.28;5034037;28;21132;-69
2023/04/07 12:36:46;;;;;;;;;;;;;;;22.22;33.57;101901.69;5076046;28;19937;-69